sensor_id;sensor_type;location;lat;lon;timestamp;temperature;humidity
22418;DHT22;11376;50.932;4.442;2023-04-25T00:00:22;9.80;99.90
22418;DHT22;11376;50.932;4.442;2023-04-25T00:02:48;9.80;99.90
22418;DHT22;11376;50.932;4.442;2023-04-25T00:05:14;9.70;99.90
22418;DHT22;11376;50.932;4.442;2023-04-25T00:07:42;9.70;99.90
22418;DHT22;11376;50.932;4.442;2023-04-25T00:10:09;9.70;99.90
22418;DHT22;11376;50.932;4.442;2023-04-25T00:12:34;9.60;99.90
22418;DHT22;11376;50.932;4.442;2023-04-25T00:15:01;9.60;99.90
22418;DHT22;11376;50.932;4.442;2023-04-25T00:17:27;9.70;99.90
22418;DHT22;11376;50.932;4.442;2023-04-25T00:19:53;9.70;99.90
22418;DHT22;11376;50.932;4.442;2023-04-25T00:22:19;9.70;99.90
22418;DHT22;11376;50.932;4.442;2023-04-25T00:24:44;9.70;99.90
22418;DHT22;11376;50.932;4.442;2023-04-25T00:27:10;9.80;99.90
22418;DHT22;11376;50.932;4.442;2023-04-25T00:29:36;9.90;99.90
22418;DHT22;11376;50.932;4.442;2023-04-25T00:32:02;10.00;99.90
22418;DHT22;11376;50.932;4.442;2023-04-25T00:34:27;10.10;99.90
22418;DHT22;11376;50.932;4.442;2023-04-25T00:36:53;9.90;99.90
22418;DHT22;11376;50.932;4.442;2023-04-25T00:39:19;9.70;99.90
22418;DHT22;11376;50.932;4.442;2023-04-25T00:41:45;9.60;99.90
22418;DHT22;11376;50.932;4.442;2023-04-25T00:44:11;9.50;99.90
22418;DHT22;11376;50.932;4.442;2023-04-25T00:46:38;9.20;99.90
22418;DHT22;11376;50.932;4.442;2023-04-25T00:49:05;9.20;99.90
22418;DHT22;11376;50.932;4.442;2023-04-25T00:51:30;9.20;99.90
22418;DHT22;11376;50.932;4.442;2023-04-25T00:53:58;9.20;99.90
22418;DHT22;11376;50.932;4.442;2023-04-25T00:56:24;9.20;99.90
22418;DHT22;11376;50.932;4.442;2023-04-25T00:58:53;9.10;99.90
22418;DHT22;11376;50.932;4.442;2023-04-25T01:01:19;9.00;99.90
22418;DHT22;11376;50.932;4.442;2023-04-25T01:03:46;8.90;99.90
22418;DHT22;11376;50.932;4.442;2023-04-25T01:06:12;9.00;99.90
22418;DHT22;11376;50.932;4.442;2023-04-25T01:08:39;9.00;99.90
22418;DHT22;11376;50.932;4.442;2023-04-25T01:11:05;9.20;99.90
22418;DHT22;11376;50.932;4.442;2023-04-25T01:13:31;9.30;99.90
22418;DHT22;11376;50.932;4.442;2023-04-25T01:15:59;9.30;99.90
22418;DHT22;11376;50.932;4.442;2023-04-25T01:18:24;9.30;99.90
22418;DHT22;11376;50.932;4.442;2023-04-25T01:20:53;9.30;99.90
22418;DHT22;11376;50.932;4.442;2023-04-25T01:23:21;9.30;99.90
22418;DHT22;11376;50.932;4.442;2023-04-25T01:25:47;9.30;99.90
22418;DHT22;11376;50.932;4.442;2023-04-25T01:28:13;9.30;99.90
22418;DHT22;11376;50.932;4.442;2023-04-25T01:30:40;9.20;99.90
22418;DHT22;11376;50.932;4.442;2023-04-25T01:33:07;9.30;99.90
22418;DHT22;11376;50.932;4.442;2023-04-25T01:35:33;9.30;99.90
22418;DHT22;11376;50.932;4.442;2023-04-25T01:37:59;9.20;99.90
22418;DHT22;11376;50.932;4.442;2023-04-25T01:40:25;9.20;99.90
22418;DHT22;11376;50.932;4.442;2023-04-25T01:42:52;9.10;99.90
22418;DHT22;11376;50.932;4.442;2023-04-25T01:45:18;9.10;99.90
22418;DHT22;11376;50.932;4.442;2023-04-25T01:47:44;9.10;99.90
22418;DHT22;11376;50.932;4.442;2023-04-25T01:50:15;9.10;99.90
22418;DHT22;11376;50.932;4.442;2023-04-25T01:52:41;9.20;99.90
22418;DHT22;11376;50.932;4.442;2023-04-25T01:55:07;9.20;99.90
22418;DHT22;11376;50.932;4.442;2023-04-25T01:57:32;9.20;99.90
22418;DHT22;11376;50.932;4.442;2023-04-25T02:00:03;9.20;99.90
22418;DHT22;11376;50.932;4.442;2023-04-25T02:02:29;9.20;99.90
22418;DHT22;11376;50.932;4.442;2023-04-25T02:04:54;9.20;99.90
22418;DHT22;11376;50.932;4.442;2023-04-25T02:07:21;9.20;99.90
22418;DHT22;11376;50.932;4.442;2023-04-25T02:09:47;9.10;99.90
22418;DHT22;11376;50.932;4.442;2023-04-25T02:12:13;9.00;99.90
22418;DHT22;11376;50.932;4.442;2023-04-25T02:14:38;9.00;99.90
22418;DHT22;11376;50.932;4.442;2023-04-25T02:17:04;8.90;99.90
22418;DHT22;11376;50.932;4.442;2023-04-25T02:19:31;8.90;99.90
22418;DHT22;11376;50.932;4.442;2023-04-25T02:21:56;9.00;99.90
22418;DHT22;11376;50.932;4.442;2023-04-25T02:24:22;9.10;99.90
22418;DHT22;11376;50.932;4.442;2023-04-25T02:26:48;9.00;99.90
22418;DHT22;11376;50.932;4.442;2023-04-25T02:29:15;9.00;99.90
22418;DHT22;11376;50.932;4.442;2023-04-25T02:31:41;9.20;99.90
22418;DHT22;11376;50.932;4.442;2023-04-25T02:34:06;9.20;99.90
22418;DHT22;11376;50.932;4.442;2023-04-25T02:36:32;9.30;99.90
22418;DHT22;11376;50.932;4.442;2023-04-25T02:39:00;9.40;99.90
22418;DHT22;11376;50.932;4.442;2023-04-25T02:41:26;9.50;99.90
22418;DHT22;11376;50.932;4.442;2023-04-25T02:43:52;9.40;99.90
22418;DHT22;11376;50.932;4.442;2023-04-25T02:46:17;9.40;99.90
22418;DHT22;11376;50.932;4.442;2023-04-25T02:48:43;9.50;99.90
22418;DHT22;11376;50.932;4.442;2023-04-25T02:51:09;9.40;99.90
22418;DHT22;11376;50.932;4.442;2023-04-25T02:53:34;9.40;99.90
22418;DHT22;11376;50.932;4.442;2023-04-25T02:56:00;9.30;99.90
22418;DHT22;11376;50.932;4.442;2023-04-25T02:58:26;9.30;99.90
22418;DHT22;11376;50.932;4.442;2023-04-25T03:00:52;9.30;99.90
22418;DHT22;11376;50.932;4.442;2023-04-25T03:03:18;9.20;99.90
22418;DHT22;11376;50.932;4.442;2023-04-25T03:05:48;9.20;99.90
22418;DHT22;11376;50.932;4.442;2023-04-25T03:08:13;9.30;99.90
22418;DHT22;11376;50.932;4.442;2023-04-25T03:10:39;9.40;99.90
22418;DHT22;11376;50.932;4.442;2023-04-25T03:13:05;9.40;99.90
22418;DHT22;11376;50.932;4.442;2023-04-25T03:15:31;9.40;99.90
22418;DHT22;11376;50.932;4.442;2023-04-25T03:17:56;9.30;99.90
22418;DHT22;11376;50.932;4.442;2023-04-25T03:20:22;9.30;99.90
22418;DHT22;11376;50.932;4.442;2023-04-25T03:22:48;9.30;99.90
22418;DHT22;11376;50.932;4.442;2023-04-25T03:25:13;9.20;99.90
22418;DHT22;11376;50.932;4.442;2023-04-25T03:27:39;9.00;99.90
22418;DHT22;11376;50.932;4.442;2023-04-25T03:30:05;8.90;99.90
22418;DHT22;11376;50.932;4.442;2023-04-25T03:32:32;8.90;99.90
22418;DHT22;11376;50.932;4.442;2023-04-25T03:34:57;8.80;99.90
22418;DHT22;11376;50.932;4.442;2023-04-25T03:37:23;8.70;99.90
22418;DHT22;11376;50.932;4.442;2023-04-25T03:39:48;8.70;99.90
22418;DHT22;11376;50.932;4.442;2023-04-25T03:42:14;8.60;99.90
22418;DHT22;11376;50.932;4.442;2023-04-25T03:44:40;8.50;99.90
22418;DHT22;11376;50.932;4.442;2023-04-25T03:47:05;8.50;99.90
22418;DHT22;11376;50.932;4.442;2023-04-25T03:49:32;8.30;99.90
22418;DHT22;11376;50.932;4.442;2023-04-25T03:51:57;8.30;99.90
22418;DHT22;11376;50.932;4.442;2023-04-25T03:54:23;8.40;99.90
22418;DHT22;11376;50.932;4.442;2023-04-25T03:56:49;8.50;99.90
22418;DHT22;11376;50.932;4.442;2023-04-25T03:59:14;8.50;99.90
22418;DHT22;11376;50.932;4.442;2023-04-25T04:01:40;8.50;99.90
22418;DHT22;11376;50.932;4.442;2023-04-25T04:04:06;8.50;99.90
22418;DHT22;11376;50.932;4.442;2023-04-25T04:06:31;8.60;99.90
22418;DHT22;11376;50.932;4.442;2023-04-25T04:08:57;8.50;99.90
22418;DHT22;11376;50.932;4.442;2023-04-25T04:11:23;8.60;99.90
22418;DHT22;11376;50.932;4.442;2023-04-25T04:13:48;8.60;99.90
22418;DHT22;11376;50.932;4.442;2023-04-25T04:16:14;8.60;99.90
22418;DHT22;11376;50.932;4.442;2023-04-25T04:18:40;8.60;99.90
22418;DHT22;11376;50.932;4.442;2023-04-25T04:21:05;8.70;99.90
22418;DHT22;11376;50.932;4.442;2023-04-25T04:23:31;8.70;99.90
22418;DHT22;11376;50.932;4.442;2023-04-25T04:25:57;8.80;99.90
22418;DHT22;11376;50.932;4.442;2023-04-25T04:28:22;8.90;99.90
22418;DHT22;11376;50.932;4.442;2023-04-25T04:30:48;9.10;99.90
22418;DHT22;11376;50.932;4.442;2023-04-25T04:33:16;9.10;99.90
22418;DHT22;11376;50.932;4.442;2023-04-25T04:35:44;9.00;99.90
22418;DHT22;11376;50.932;4.442;2023-04-25T04:38:10;9.00;99.90
22418;DHT22;11376;50.932;4.442;2023-04-25T04:40:37;9.00;99.90
22418;DHT22;11376;50.932;4.442;2023-04-25T04:43:03;8.90;99.90
22418;DHT22;11376;50.932;4.442;2023-04-25T04:45:28;8.90;99.90
22418;DHT22;11376;50.932;4.442;2023-04-25T04:47:54;8.90;99.90
22418;DHT22;11376;50.932;4.442;2023-04-25T04:50:20;8.90;99.90
22418;DHT22;11376;50.932;4.442;2023-04-25T04:52:46;8.80;99.90
22418;DHT22;11376;50.932;4.442;2023-04-25T04:55:12;8.50;99.90
22418;DHT22;11376;50.932;4.442;2023-04-25T04:57:37;8.40;99.90
22418;DHT22;11376;50.932;4.442;2023-04-25T05:00:05;8.20;99.90
22418;DHT22;11376;50.932;4.442;2023-04-25T05:02:36;8.20;99.90
22418;DHT22;11376;50.932;4.442;2023-04-25T05:05:02;8.10;99.90
22418;DHT22;11376;50.932;4.442;2023-04-25T05:07:27;8.10;99.90
22418;DHT22;11376;50.932;4.442;2023-04-25T05:09:53;8.10;99.90
22418;DHT22;11376;50.932;4.442;2023-04-25T05:12:19;8.30;99.90
22418;DHT22;11376;50.932;4.442;2023-04-25T05:14:44;8.30;99.90
22418;DHT22;11376;50.932;4.442;2023-04-25T05:17:10;8.40;99.90
22418;DHT22;11376;50.932;4.442;2023-04-25T05:19:36;8.50;99.90
22418;DHT22;11376;50.932;4.442;2023-04-25T05:22:02;8.60;99.90
22418;DHT22;11376;50.932;4.442;2023-04-25T05:24:28;8.60;99.90
22418;DHT22;11376;50.932;4.442;2023-04-25T05:26:53;8.70;99.90
22418;DHT22;11376;50.932;4.442;2023-04-25T05:29:19;8.70;99.90
22418;DHT22;11376;50.932;4.442;2023-04-25T05:31:45;9.00;99.90
22418;DHT22;11376;50.932;4.442;2023-04-25T05:34:10;9.10;99.90
22418;DHT22;11376;50.932;4.442;2023-04-25T05:36:36;9.10;99.90
22418;DHT22;11376;50.932;4.442;2023-04-25T05:39:02;9.00;99.90
22418;DHT22;11376;50.932;4.442;2023-04-25T05:41:29;9.00;99.90
22418;DHT22;11376;50.932;4.442;2023-04-25T05:43:55;9.20;99.90
22418;DHT22;11376;50.932;4.442;2023-04-25T05:46:20;9.20;99.90
22418;DHT22;11376;50.932;4.442;2023-04-25T05:48:46;9.20;99.90
22418;DHT22;11376;50.932;4.442;2023-04-25T05:51:12;9.20;99.90
22418;DHT22;11376;50.932;4.442;2023-04-25T05:53:37;9.30;99.90
22418;DHT22;11376;50.932;4.442;2023-04-25T05:56:03;9.30;99.90
22418;DHT22;11376;50.932;4.442;2023-04-25T05:58:29;9.20;99.90
22418;DHT22;11376;50.932;4.442;2023-04-25T06:00:54;9.00;99.90
22418;DHT22;11376;50.932;4.442;2023-04-25T06:03:20;9.00;99.90
22418;DHT22;11376;50.932;4.442;2023-04-25T06:05:46;8.90;99.90
22418;DHT22;11376;50.932;4.442;2023-04-25T06:08:12;9.10;99.90
22418;DHT22;11376;50.932;4.442;2023-04-25T06:10:38;9.20;99.90
22418;DHT22;11376;50.932;4.442;2023-04-25T06:13:04;9.20;99.90
22418;DHT22;11376;50.932;4.442;2023-04-25T06:15:30;9.20;99.90
22418;DHT22;11376;50.932;4.442;2023-04-25T06:17:58;8.90;99.90
22418;DHT22;11376;50.932;4.442;2023-04-25T06:20:23;8.70;99.90
22418;DHT22;11376;50.932;4.442;2023-04-25T06:22:50;8.30;99.90
22418;DHT22;11376;50.932;4.442;2023-04-25T06:25:17;8.20;99.90
22418;DHT22;11376;50.932;4.442;2023-04-25T06:27:42;8.30;99.90
22418;DHT22;11376;50.932;4.442;2023-04-25T06:30:08;8.30;99.90
22418;DHT22;11376;50.932;4.442;2023-04-25T06:32:35;8.20;99.90
22418;DHT22;11376;50.932;4.442;2023-04-25T06:35:00;8.40;99.90
22418;DHT22;11376;50.932;4.442;2023-04-25T06:37:26;8.60;99.90
22418;DHT22;11376;50.932;4.442;2023-04-25T06:39:52;8.70;99.90
22418;DHT22;11376;50.932;4.442;2023-04-25T06:42:17;8.90;99.90
22418;DHT22;11376;50.932;4.442;2023-04-25T06:44:43;8.80;99.90
22418;DHT22;11376;50.932;4.442;2023-04-25T06:47:09;8.60;99.90
22418;DHT22;11376;50.932;4.442;2023-04-25T06:49:34;8.50;99.90
22418;DHT22;11376;50.932;4.442;2023-04-25T06:52:00;8.60;99.90
22418;DHT22;11376;50.932;4.442;2023-04-25T06:54:26;8.80;99.90
22418;DHT22;11376;50.932;4.442;2023-04-25T06:56:54;9.00;99.90
22418;DHT22;11376;50.932;4.442;2023-04-25T06:59:19;9.10;99.90
22418;DHT22;11376;50.932;4.442;2023-04-25T07:01:45;9.00;99.90
22418;DHT22;11376;50.932;4.442;2023-04-25T07:04:11;8.90;99.90
22418;DHT22;11376;50.932;4.442;2023-04-25T07:06:36;8.90;99.90
22418;DHT22;11376;50.932;4.442;2023-04-25T07:09:10;9.00;99.90
22418;DHT22;11376;50.932;4.442;2023-04-25T07:11:36;9.00;99.90
22418;DHT22;11376;50.932;4.442;2023-04-25T07:14:02;9.10;99.90
22418;DHT22;11376;50.932;4.442;2023-04-25T07:16:28;9.20;99.90
22418;DHT22;11376;50.932;4.442;2023-04-25T07:18:53;9.50;99.90
22418;DHT22;11376;50.932;4.442;2023-04-25T07:21:19;9.60;99.90
22418;DHT22;11376;50.932;4.442;2023-04-25T07:23:45;9.50;99.90
22418;DHT22;11376;50.932;4.442;2023-04-25T07:26:11;9.60;99.90
22418;DHT22;11376;50.932;4.442;2023-04-25T07:28:36;9.40;99.90
22418;DHT22;11376;50.932;4.442;2023-04-25T07:31:02;9.30;99.90
22418;DHT22;11376;50.932;4.442;2023-04-25T07:33:28;9.20;99.90
22418;DHT22;11376;50.932;4.442;2023-04-25T07:35:54;9.20;99.90
22418;DHT22;11376;50.932;4.442;2023-04-25T07:38:21;9.30;99.90
22418;DHT22;11376;50.932;4.442;2023-04-25T07:40:50;9.20;99.90
22418;DHT22;11376;50.932;4.442;2023-04-25T07:43:15;9.00;99.90
22418;DHT22;11376;50.932;4.442;2023-04-25T07:45:43;9.10;99.90
22418;DHT22;11376;50.932;4.442;2023-04-25T07:48:09;9.30;99.90
22418;DHT22;11376;50.932;4.442;2023-04-25T07:50:35;9.70;99.90
22418;DHT22;11376;50.932;4.442;2023-04-25T07:53:01;9.90;99.90
22418;DHT22;11376;50.932;4.442;2023-04-25T07:55:26;9.80;99.90
22418;DHT22;11376;50.932;4.442;2023-04-25T07:57:52;9.90;99.90
22418;DHT22;11376;50.932;4.442;2023-04-25T08:00:18;10.00;99.90
22418;DHT22;11376;50.932;4.442;2023-04-25T08:02:43;10.10;99.90
22418;DHT22;11376;50.932;4.442;2023-04-25T08:05:09;10.30;99.90
22418;DHT22;11376;50.932;4.442;2023-04-25T08:07:37;10.40;99.90
22418;DHT22;11376;50.932;4.442;2023-04-25T08:10:05;10.10;99.90
22418;DHT22;11376;50.932;4.442;2023-04-25T08:12:31;10.20;99.90
22418;DHT22;11376;50.932;4.442;2023-04-25T08:14:57;10.50;99.90
22418;DHT22;11376;50.932;4.442;2023-04-25T08:17:22;10.80;99.90
22418;DHT22;11376;50.932;4.442;2023-04-25T08:19:49;10.70;99.90
22418;DHT22;11376;50.932;4.442;2023-04-25T08:22:14;10.70;99.90
22418;DHT22;11376;50.932;4.442;2023-04-25T08:24:41;10.70;99.90
22418;DHT22;11376;50.932;4.442;2023-04-25T08:27:07;11.00;99.90
22418;DHT22;11376;50.932;4.442;2023-04-25T08:29:33;11.40;99.90
22418;DHT22;11376;50.932;4.442;2023-04-25T08:31:59;11.60;99.90
22418;DHT22;11376;50.932;4.442;2023-04-25T08:34:25;11.70;99.90
22418;DHT22;11376;50.932;4.442;2023-04-25T08:36:51;11.80;99.90
22418;DHT22;11376;50.932;4.442;2023-04-25T08:39:17;11.90;99.90
22418;DHT22;11376;50.932;4.442;2023-04-25T08:41:42;12.10;99.90
22418;DHT22;11376;50.932;4.442;2023-04-25T08:44:10;12.40;99.90
22418;DHT22;11376;50.932;4.442;2023-04-25T08:46:38;12.50;99.90
22418;DHT22;11376;50.932;4.442;2023-04-25T08:49:06;12.40;99.90
22418;DHT22;11376;50.932;4.442;2023-04-25T08:51:33;12.10;99.90
22418;DHT22;11376;50.932;4.442;2023-04-25T08:54:12;11.20;99.90
22418;DHT22;11376;50.932;4.442;2023-04-25T08:56:44;11.20;99.90
22418;DHT22;11376;50.932;4.442;2023-04-25T08:59:13;11.20;99.90
22418;DHT22;11376;50.932;4.442;2023-04-25T09:01:39;11.60;99.90
22418;DHT22;11376;50.932;4.442;2023-04-25T09:04:05;11.90;99.90
22418;DHT22;11376;50.932;4.442;2023-04-25T09:06:31;11.80;99.90
22418;DHT22;11376;50.932;4.442;2023-04-25T09:09:08;11.80;99.90
22418;DHT22;11376;50.932;4.442;2023-04-25T09:11:36;12.00;99.90
22418;DHT22;11376;50.932;4.442;2023-04-25T09:14:17;11.90;99.90
22418;DHT22;11376;50.932;4.442;2023-04-25T09:21:55;11.40;99.90
22418;DHT22;11376;50.932;4.442;2023-04-25T09:24:50;11.70;99.90
22418;DHT22;11376;50.932;4.442;2023-04-25T09:27:21;11.90;99.90
22418;DHT22;11376;50.932;4.442;2023-04-25T09:29:48;12.00;99.90
22418;DHT22;11376;50.932;4.442;2023-04-25T09:32:22;11.90;99.90
22418;DHT22;11376;50.932;4.442;2023-04-25T09:34:53;12.10;99.90
22418;DHT22;11376;50.932;4.442;2023-04-25T09:37:29;12.50;99.90
22418;DHT22;11376;50.932;4.442;2023-04-25T09:39:57;12.50;99.90
22418;DHT22;11376;50.932;4.442;2023-04-25T09:42:31;12.70;99.90
22418;DHT22;11376;50.932;4.442;2023-04-25T09:44:58;13.10;99.90
22418;DHT22;11376;50.932;4.442;2023-04-25T09:47:25;13.20;99.90
22418;DHT22;11376;50.932;4.442;2023-04-25T09:49:52;13.30;99.90
22418;DHT22;11376;50.932;4.442;2023-04-25T09:52:27;13.50;99.90
22418;DHT22;11376;50.932;4.442;2023-04-25T09:54:53;13.30;99.90
22418;DHT22;11376;50.932;4.442;2023-04-25T09:57:22;13.20;99.90
22418;DHT22;11376;50.932;4.442;2023-04-25T09:59:50;12.30;99.90
22418;DHT22;11376;50.932;4.442;2023-04-25T10:02:21;12.00;99.90
22418;DHT22;11376;50.932;4.442;2023-04-25T10:04:52;12.20;99.90
22418;DHT22;11376;50.932;4.442;2023-04-25T10:07:20;12.60;99.90
22418;DHT22;11376;50.932;4.442;2023-04-25T10:09:49;12.90;99.90
22418;DHT22;11376;50.932;4.442;2023-04-25T10:12:17;12.80;99.90
22418;DHT22;11376;50.932;4.442;2023-04-25T10:14:44;12.60;99.90
22418;DHT22;11376;50.932;4.442;2023-04-25T10:17:11;12.60;99.90
22418;DHT22;11376;50.932;4.442;2023-04-25T10:19:37;12.80;99.90
22418;DHT22;11376;50.932;4.442;2023-04-25T10:22:18;13.10;99.90
22418;DHT22;11376;50.932;4.442;2023-04-25T10:24:46;13.60;99.90
22418;DHT22;11376;50.932;4.442;2023-04-25T10:27:13;14.40;99.90
22418;DHT22;11376;50.932;4.442;2023-04-25T10:29:39;15.30;99.90
22418;DHT22;11376;50.932;4.442;2023-04-25T10:32:08;15.60;99.90
22418;DHT22;11376;50.932;4.442;2023-04-25T10:34:42;15.30;99.90
22418;DHT22;11376;50.932;4.442;2023-04-25T10:37:11;14.90;99.90
22418;DHT22;11376;50.932;4.442;2023-04-25T10:39:39;14.90;99.90
22418;DHT22;11376;50.932;4.442;2023-04-25T10:42:05;14.80;99.90
22418;DHT22;11376;50.932;4.442;2023-04-25T10:44:33;14.70;99.90
22418;DHT22;11376;50.932;4.442;2023-04-25T10:47:00;14.70;99.90
22418;DHT22;11376;50.932;4.442;2023-04-25T10:49:37;14.50;99.90
22418;DHT22;11376;50.932;4.442;2023-04-25T10:52:24;12.80;99.90
22418;DHT22;11376;50.932;4.442;2023-04-25T10:54:55;12.50;99.90
22418;DHT22;11376;50.932;4.442;2023-04-25T11:00:01;12.40;99.90
22418;DHT22;11376;50.932;4.442;2023-04-25T11:03:00;12.40;99.90
22418;DHT22;11376;50.932;4.442;2023-04-25T11:05:30;12.20;99.90
22418;DHT22;11376;50.932;4.442;2023-04-25T11:07:58;11.90;99.90
22418;DHT22;11376;50.932;4.442;2023-04-25T11:10:31;12.10;99.90
22418;DHT22;11376;50.932;4.442;2023-04-25T11:12:57;12.30;99.90
22418;DHT22;11376;50.932;4.442;2023-04-25T11:15:24;12.20;99.90
22418;DHT22;11376;50.932;4.442;2023-04-25T11:17:54;12.90;99.90
22418;DHT22;11376;50.932;4.442;2023-04-25T11:20:21;14.20;99.90
22418;DHT22;11376;50.932;4.442;2023-04-25T11:22:47;15.50;99.90
22418;DHT22;11376;50.932;4.442;2023-04-25T11:25:14;16.10;99.90
22418;DHT22;11376;50.932;4.442;2023-04-25T11:27:54;17.00;99.90
22418;DHT22;11376;50.932;4.442;2023-04-25T11:30:22;17.10;99.90
22418;DHT22;11376;50.932;4.442;2023-04-25T11:32:47;16.70;99.90
22418;DHT22;11376;50.932;4.442;2023-04-25T11:35:13;16.40;99.90
22418;DHT22;11376;50.932;4.442;2023-04-25T11:37:40;15.20;99.90
22418;DHT22;11376;50.932;4.442;2023-04-25T11:40:07;14.10;99.90
22418;DHT22;11376;50.932;4.442;2023-04-25T11:42:34;13.90;99.90
22418;DHT22;11376;50.932;4.442;2023-04-25T11:45:00;13.80;99.90
22418;DHT22;11376;50.932;4.442;2023-04-25T11:47:30;14.50;99.90
22418;DHT22;11376;50.932;4.442;2023-04-25T11:49:58;15.10;99.90
22418;DHT22;11376;50.932;4.442;2023-04-25T11:52:34;16.90;99.90
22418;DHT22;11376;50.932;4.442;2023-04-25T11:55:00;18.80;99.90
22418;DHT22;11376;50.932;4.442;2023-04-25T11:57:25;19.90;99.50
22418;DHT22;11376;50.932;4.442;2023-04-25T11:59:51;19.20;98.70
22418;DHT22;11376;50.932;4.442;2023-04-25T12:02:26;17.10;99.90
22418;DHT22;11376;50.932;4.442;2023-04-25T12:04:52;17.00;99.90
22418;DHT22;11376;50.932;4.442;2023-04-25T12:07:18;15.50;99.90
22418;DHT22;11376;50.932;4.442;2023-04-25T12:09:51;14.50;99.90
22418;DHT22;11376;50.932;4.442;2023-04-25T12:12:18;13.70;99.90
22418;DHT22;11376;50.932;4.442;2023-04-25T12:14:47;13.90;99.90
22418;DHT22;11376;50.932;4.442;2023-04-25T12:17:14;13.50;99.90
22418;DHT22;11376;50.932;4.442;2023-04-25T12:19:39;13.50;99.90
22418;DHT22;11376;50.932;4.442;2023-04-25T12:22:23;14.00;99.90
22418;DHT22;11376;50.932;4.442;2023-04-25T12:24:50;15.00;99.90
22418;DHT22;11376;50.932;4.442;2023-04-25T12:27:16;16.70;99.90
22418;DHT22;11376;50.932;4.442;2023-04-25T12:29:52;17.30;97.20
22418;DHT22;11376;50.932;4.442;2023-04-25T12:32:17;17.50;98.60
22418;DHT22;11376;50.932;4.442;2023-04-25T12:34:43;16.70;96.30
22418;DHT22;11376;50.932;4.442;2023-04-25T12:37:10;15.90;97.50
22418;DHT22;11376;50.932;4.442;2023-04-25T12:39:36;16.10;97.30
22418;DHT22;11376;50.932;4.442;2023-04-25T12:42:02;17.50;96.20
22418;DHT22;11376;50.932;4.442;2023-04-25T12:44:28;18.00;95.40
22418;DHT22;11376;50.932;4.442;2023-04-25T12:46:54;17.00;96.00
22418;DHT22;11376;50.932;4.442;2023-04-25T12:49:20;16.60;99.50
22418;DHT22;11376;50.932;4.442;2023-04-25T12:51:46;16.00;99.90
22418;DHT22;11376;50.932;4.442;2023-04-25T12:54:12;15.50;99.90
22418;DHT22;11376;50.932;4.442;2023-04-25T12:56:38;14.50;99.90
22418;DHT22;11376;50.932;4.442;2023-04-25T12:59:04;13.60;99.90
22418;DHT22;11376;50.932;4.442;2023-04-25T13:01:29;14.20;99.90
22418;DHT22;11376;50.932;4.442;2023-04-25T13:03:55;15.20;99.90
22418;DHT22;11376;50.932;4.442;2023-04-25T13:06:21;15.70;99.90
22418;DHT22;11376;50.932;4.442;2023-04-25T13:08:47;17.00;99.90
22418;DHT22;11376;50.932;4.442;2023-04-25T13:11:13;17.50;99.60
22418;DHT22;11376;50.932;4.442;2023-04-25T13:13:40;17.80;99.10
22418;DHT22;11376;50.932;4.442;2023-04-25T13:16:07;16.60;99.90
22418;DHT22;11376;50.932;4.442;2023-04-25T13:18:33;16.30;99.90
22418;DHT22;11376;50.932;4.442;2023-04-25T13:20:59;17.50;99.90
22418;DHT22;11376;50.932;4.442;2023-04-25T13:23:27;19.60;95.90
22418;DHT22;11376;50.932;4.442;2023-04-25T13:25:54;22.20;92.50
22418;DHT22;11376;50.932;4.442;2023-04-25T13:28:20;21.80;89.60
22418;DHT22;11376;50.932;4.442;2023-04-25T13:30:46;21.10;87.90
22418;DHT22;11376;50.932;4.442;2023-04-25T13:33:13;22.70;85.90
22418;DHT22;11376;50.932;4.442;2023-04-25T13:35:39;23.60;78.50
22418;DHT22;11376;50.932;4.442;2023-04-25T13:38:05;24.30;73.00
22418;DHT22;11376;50.932;4.442;2023-04-25T13:40:31;24.10;70.20
22418;DHT22;11376;50.932;4.442;2023-04-25T13:42:57;22.90;72.50
22418;DHT22;11376;50.932;4.442;2023-04-25T13:45:23;21.90;75.30
22418;DHT22;11376;50.932;4.442;2023-04-25T13:47:48;21.00;76.60
22418;DHT22;11376;50.932;4.442;2023-04-25T13:50:14;20.40;77.10
22418;DHT22;11376;50.932;4.442;2023-04-25T13:52:41;19.80;77.80
22418;DHT22;11376;50.932;4.442;2023-04-25T13:55:07;18.60;81.70
22418;DHT22;11376;50.932;4.442;2023-04-25T13:57:34;17.70;85.60
22418;DHT22;11376;50.932;4.442;2023-04-25T14:00:00;16.90;90.50
22418;DHT22;11376;50.932;4.442;2023-04-25T14:02:30;16.30;92.10
22418;DHT22;11376;50.932;4.442;2023-04-25T14:04:55;17.30;91.90
22418;DHT22;11376;50.932;4.442;2023-04-25T14:07:21;19.00;85.20
22418;DHT22;11376;50.932;4.442;2023-04-25T14:09:47;20.80;77.70
22418;DHT22;11376;50.932;4.442;2023-04-25T14:12:12;21.10;69.60
22418;DHT22;11376;50.932;4.442;2023-04-25T14:14:38;19.80;74.40
22418;DHT22;11376;50.932;4.442;2023-04-25T14:17:04;21.20;71.30
22418;DHT22;11376;50.932;4.442;2023-04-25T14:19:30;21.50;71.80
22418;DHT22;11376;50.932;4.442;2023-04-25T14:21:56;23.20;66.00
22418;DHT22;11376;50.932;4.442;2023-04-25T14:24:21;22.20;61.70
22418;DHT22;11376;50.932;4.442;2023-04-25T14:26:47;19.90;70.10
22418;DHT22;11376;50.932;4.442;2023-04-25T14:29:13;19.10;74.60
22418;DHT22;11376;50.932;4.442;2023-04-25T14:31:39;17.00;84.10
22418;DHT22;11376;50.932;4.442;2023-04-25T14:34:06;17.50;82.90
22418;DHT22;11376;50.932;4.442;2023-04-25T14:36:32;17.30;82.40
22418;DHT22;11376;50.932;4.442;2023-04-25T14:38:58;18.30;78.70
22418;DHT22;11376;50.932;4.442;2023-04-25T14:41:24;18.90;75.00
22418;DHT22;11376;50.932;4.442;2023-04-25T14:43:50;18.10;78.60
22418;DHT22;11376;50.932;4.442;2023-04-25T14:46:16;18.70;81.60
22418;DHT22;11376;50.932;4.442;2023-04-25T14:48:42;18.80;78.30
22418;DHT22;11376;50.932;4.442;2023-04-25T14:51:08;18.20;77.80
22418;DHT22;11376;50.932;4.442;2023-04-25T14:53:34;17.60;80.60
22418;DHT22;11376;50.932;4.442;2023-04-25T14:55:59;16.80;82.80
22418;DHT22;11376;50.932;4.442;2023-04-25T14:58:25;16.90;85.00
22418;DHT22;11376;50.932;4.442;2023-04-25T15:00:51;17.10;84.00
22418;DHT22;11376;50.932;4.442;2023-04-25T15:03:17;16.40;84.70
22418;DHT22;11376;50.932;4.442;2023-04-25T15:05:43;15.60;87.30
22418;DHT22;11376;50.932;4.442;2023-04-25T15:08:09;15.70;88.70
22418;DHT22;11376;50.932;4.442;2023-04-25T15:10:38;16.30;88.00
22418;DHT22;11376;50.932;4.442;2023-04-25T15:13:03;16.90;86.80
22418;DHT22;11376;50.932;4.442;2023-04-25T15:15:29;17.60;84.10
22418;DHT22;11376;50.932;4.442;2023-04-25T15:17:57;18.00;81.50
22418;DHT22;11376;50.932;4.442;2023-04-25T15:20:23;17.90;82.10
22418;DHT22;11376;50.932;4.442;2023-04-25T15:22:48;17.80;81.50
22418;DHT22;11376;50.932;4.442;2023-04-25T15:25:15;17.60;82.80
22418;DHT22;11376;50.932;4.442;2023-04-25T15:27:43;18.20;82.60
22418;DHT22;11376;50.932;4.442;2023-04-25T15:30:14;18.80;80.30
22418;DHT22;11376;50.932;4.442;2023-04-25T15:32:44;19.30;78.30
22418;DHT22;11376;50.932;4.442;2023-04-25T15:35:10;19.80;76.70
22418;DHT22;11376;50.932;4.442;2023-04-25T15:37:36;20.00;75.00
22418;DHT22;11376;50.932;4.442;2023-04-25T15:40:04;20.90;73.80
22418;DHT22;11376;50.932;4.442;2023-04-25T15:42:38;21.80;67.10